sensor_id;sensor_type;location;lat;lon;timestamp;P1;durP1;ratioP1;P2;durP2;ratioP2
16308;SDS011;8263;48.880;9.276;2022-08-20T00:00:25;0.43;;;0.43;;
16308;SDS011;8263;48.880;9.276;2022-08-20T00:03:25;0.93;;;0.70;;
16308;SDS011;8263;48.880;9.276;2022-08-20T00:05:58;0.50;;;0.50;;
16308;SDS011;8263;48.880;9.276;2022-08-20T00:08:28;0.70;;;0.70;;
16308;SDS011;8263;48.880;9.276;2022-08-20T00:11:01;0.47;;;0.47;;
16308;SDS011;8263;48.880;9.276;2022-08-20T00:13:37;0.40;;;0.40;;
16308;SDS011;8263;48.880;9.276;2022-08-20T00:16:07;0.70;;;0.70;;
16308;SDS011;8263;48.880;9.276;2022-08-20T00:18:40;1.13;;;0.60;;
16308;SDS011;8263;48.880;9.276;2022-08-20T00:21:13;0.55;;;0.55;;
16308;SDS011;8263;48.880;9.276;2022-08-20T00:23:44;0.40;;;0.40;;
16308;SDS011;8263;48.880;9.276;2022-08-20T00:29:13;0.75;;;0.75;;
16308;SDS011;8263;48.880;9.276;2022-08-20T00:31:55;0.50;;;0.50;;
16308;SDS011;8263;48.880;9.276;2022-08-20T00:34:37;0.52;;;0.52;;
16308;SDS011;8263;48.880;9.276;2022-08-20T00:42:51;0.43;;;0.43;;
16308;SDS011;8263;48.880;9.276;2022-08-20T00:45:37;0.60;;;0.60;;
16308;SDS011;8263;48.880;9.276;2022-08-20T00:48:30;0.50;;;0.50;;
16308;SDS011;8263;48.880;9.276;2022-08-20T00:53:47;0.63;;;0.60;;
16308;SDS011;8263;48.880;9.276;2022-08-20T00:56:14;0.50;;;0.50;;
16308;SDS011;8263;48.880;9.276;2022-08-20T00:58:42;0.30;;;0.30;;
16308;SDS011;8263;48.880;9.276;2022-08-20T01:01:10;0.45;;;0.45;;
16308;SDS011;8263;48.880;9.276;2022-08-20T01:03:37;0.52;;;0.52;;
16308;SDS011;8263;48.880;9.276;2022-08-20T01:06:06;0.40;;;0.40;;
16308;SDS011;8263;48.880;9.276;2022-08-20T01:08:36;0.60;;;0.60;;
16308;SDS011;8263;48.880;9.276;2022-08-20T01:11:03;0.50;;;0.50;;
16308;SDS011;8263;48.880;9.276;2022-08-20T01:14:31;0.40;;;0.40;;
16308;SDS011;8263;48.880;9.276;2022-08-20T01:17:16;0.30;;;0.30;;
16308;SDS011;8263;48.880;9.276;2022-08-20T01:20:00;0.40;;;0.40;;
16308;SDS011;8263;48.880;9.276;2022-08-20T01:22:57;0.40;;;0.40;;
16308;SDS011;8263;48.880;9.276;2022-08-20T01:28:53;0.50;;;0.50;;
16308;SDS011;8263;48.880;9.276;2022-08-20T01:31:46;0.50;;;0.50;;
16308;SDS011;8263;48.880;9.276;2022-08-20T01:34:30;0.50;;;0.50;;
16308;SDS011;8263;48.880;9.276;2022-08-20T01:36:59;0.65;;;0.65;;
16308;SDS011;8263;48.880;9.276;2022-08-20T01:39:39;0.57;;;0.57;;
16308;SDS011;8263;48.880;9.276;2022-08-20T01:42:09;0.40;;;0.40;;
16308;SDS011;8263;48.880;9.276;2022-08-20T01:44:50;0.30;;;0.30;;
16308;SDS011;8263;48.880;9.276;2022-08-20T01:47:21;0.68;;;0.68;;
16308;SDS011;8263;48.880;9.276;2022-08-20T01:49:54;0.45;;;0.40;;
16308;SDS011;8263;48.880;9.276;2022-08-20T01:52:27;0.40;;;0.40;;
16308;SDS011;8263;48.880;9.276;2022-08-20T01:55:27;0.43;;;0.43;;
16308;SDS011;8263;48.880;9.276;2022-08-20T01:58:22;0.47;;;0.45;;
16308;SDS011;8263;48.880;9.276;2022-08-20T02:00:50;0.57;;;0.57;;
16308;SDS011;8263;48.880;9.276;2022-08-20T02:03:26;0.75;;;0.73;;
16308;SDS011;8263;48.880;9.276;2022-08-20T02:06:16;0.60;;;0.60;;
16308;SDS011;8263;48.880;9.276;2022-08-20T02:08:53;1.08;;;0.88;;
16308;SDS011;8263;48.880;9.276;2022-08-20T02:11:33;3.95;;;1.20;;
16308;SDS011;8263;48.880;9.276;2022-08-20T02:14:06;1.08;;;0.90;;
16308;SDS011;8263;48.880;9.276;2022-08-20T02:16:40;0.75;;;0.73;;
16308;SDS011;8263;48.880;9.276;2022-08-20T02:19:20;1.23;;;0.80;;
16308;SDS011;8263;48.880;9.276;2022-08-20T02:21:51;1.33;;;0.80;;
16308;SDS011;8263;48.880;9.276;2022-08-20T02:24:20;0.82;;;0.70;;
16308;SDS011;8263;48.880;9.276;2022-08-20T02:26:52;0.65;;;0.65;;
16308;SDS011;8263;48.880;9.276;2022-08-20T02:29:28;1.27;;;0.70;;
16308;SDS011;8263;48.880;9.276;2022-08-20T02:34:57;0.65;;;0.65;;
16308;SDS011;8263;48.880;9.276;2022-08-20T02:37:30;0.82;;;0.70;;
16308;SDS011;8263;48.880;9.276;2022-08-20T02:39:59;1.83;;;0.90;;
16308;SDS011;8263;48.880;9.276;2022-08-20T02:42:39;0.90;;;0.82;;
16308;SDS011;8263;48.880;9.276;2022-08-20T02:45:07;0.57;;;0.57;;
16308;SDS011;8263;48.880;9.276;2022-08-20T02:47:35;1.85;;;1.20;;
16308;SDS011;8263;48.880;9.276;2022-08-20T02:50:17;1.35;;;1.10;;
16308;SDS011;8263;48.880;9.276;2022-08-20T02:52:54;0.60;;;0.60;;
16308;SDS011;8263;48.880;9.276;2022-08-20T02:55:43;0.38;;;0.38;;
16308;SDS011;8263;48.880;9.276;2022-08-20T02:58:17;0.68;;;0.68;;
16308;SDS011;8263;48.880;9.276;2022-08-20T03:00:56;0.60;;;0.47;;
16308;SDS011;8263;48.880;9.276;2022-08-20T03:03:33;0.52;;;0.52;;
16308;SDS011;8263;48.880;9.276;2022-08-20T03:06:02;0.57;;;0.57;;
16308;SDS011;8263;48.880;9.276;2022-08-20T03:08:28;0.30;;;0.30;;
16308;SDS011;8263;48.880;9.276;2022-08-20T03:11:01;1.05;;;0.60;;
16308;SDS011;8263;48.880;9.276;2022-08-20T03:13:30;0.63;;;0.60;;
16308;SDS011;8263;48.880;9.276;2022-08-20T03:15:58;0.88;;;0.70;;
16308;SDS011;8263;48.880;9.276;2022-08-20T03:18:30;0.70;;;0.70;;
16308;SDS011;8263;48.880;9.276;2022-08-20T03:21:13;0.75;;;0.75;;
16308;SDS011;8263;48.880;9.276;2022-08-20T03:24:07;0.47;;;0.47;;
16308;SDS011;8263;48.880;9.276;2022-08-20T03:29:26;0.57;;;0.57;;
16308;SDS011;8263;48.880;9.276;2022-08-20T03:32:03;0.57;;;0.57;;
16308;SDS011;8263;48.880;9.276;2022-08-20T03:34:33;0.30;;;0.30;;
16308;SDS011;8263;48.880;9.276;2022-08-20T03:40:01;0.82;;;0.60;;
16308;SDS011;8263;48.880;9.276;2022-08-20T03:42:37;0.60;;;0.60;;
16308;SDS011;8263;48.880;9.276;2022-08-20T03:45:34;0.60;;;0.57;;
16308;SDS011;8263;48.880;9.276;2022-08-20T03:48:09;1.25;;;0.98;;
16308;SDS011;8263;48.880;9.276;2022-08-20T03:50:43;0.55;;;0.47;;
16308;SDS011;8263;48.880;9.276;2022-08-20T03:53:10;0.55;;;0.55;;
16308;SDS011;8263;48.880;9.276;2022-08-20T03:58:49;0.60;;;0.60;;
16308;SDS011;8263;48.880;9.276;2022-08-20T04:01:41;0.57;;;0.57;;
16308;SDS011;8263;48.880;9.276;2022-08-20T04:04:31;1.30;;;0.80;;
16308;SDS011;8263;48.880;9.276;2022-08-20T04:07:33;1.17;;;0.80;;
16308;SDS011;8263;48.880;9.276;2022-08-20T04:10:16;0.45;;;0.45;;
16308;SDS011;8263;48.880;9.276;2022-08-20T04:12:47;0.52;;;0.40;;
16308;SDS011;8263;48.880;9.276;2022-08-20T04:15:21;0.70;;;0.70;;
16308;SDS011;8263;48.880;9.276;2022-08-20T04:21:10;0.50;;;0.50;;
16308;SDS011;8263;48.880;9.276;2022-08-20T04:23:54;0.50;;;0.50;;
16308;SDS011;8263;48.880;9.276;2022-08-20T04:26:36;1.55;;;1.00;;
16308;SDS011;8263;48.880;9.276;2022-08-20T04:29:27;0.40;;;0.40;;
16308;SDS011;8263;48.880;9.276;2022-08-20T04:35:17;0.77;;;0.60;;
16308;SDS011;8263;48.880;9.276;2022-08-20T04:40:26;0.55;;;0.55;;
16308;SDS011;8263;48.880;9.276;2022-08-20T04:43:10;0.40;;;0.40;;
16308;SDS011;8263;48.880;9.276;2022-08-20T04:45:37;0.60;;;0.60;;
16308;SDS011;8263;48.880;9.276;2022-08-20T04:48:04;0.70;;;0.70;;
16308;SDS011;8263;48.880;9.276;2022-08-20T04:50:32;0.55;;;0.55;;
16308;SDS011;8263;48.880;9.276;2022-08-20T04:53:00;0.40;;;0.40;;
16308;SDS011;8263;48.880;9.276;2022-08-20T04:55:27;0.77;;;0.77;;
16308;SDS011;8263;48.880;9.276;2022-08-20T04:58:03;0.73;;;0.73;;
16308;SDS011;8263;48.880;9.276;2022-08-20T05:00:37;0.50;;;0.50;;
16308;SDS011;8263;48.880;9.276;2022-08-20T05:03:29;0.68;;;0.68;;
16308;SDS011;8263;48.880;9.276;2022-08-20T05:11:39;0.63;;;0.63;;
16308;SDS011;8263;48.880;9.276;2022-08-20T05:14:15;0.60;;;0.60;;
16308;SDS011;8263;48.880;9.276;2022-08-20T05:16:51;1.27;;;1.15;;
16308;SDS011;8263;48.880;9.276;2022-08-20T05:19:46;1.33;;;0.60;;
16308;SDS011;8263;48.880;9.276;2022-08-20T05:22:34;0.57;;;0.57;;
16308;SDS011;8263;48.880;9.276;2022-08-20T05:46:59;0.60;;;0.60;;
16308;SDS011;8263;48.880;9.276;2022-08-20T05:49:55;0.82;;;0.70;;
16308;SDS011;8263;48.880;9.276;2022-08-20T05:55:43;0.98;;;0.80;;
16308;SDS011;8263;48.880;9.276;2022-08-20T06:07:49;0.98;;;0.85;;
16308;SDS011;8263;48.880;9.276;2022-08-20T06:10:16;1.90;;;0.80;;
16308;SDS011;8263;48.880;9.276;2022-08-20T06:12:42;0.70;;;0.70;;
16308;SDS011;8263;48.880;9.276;2022-08-20T06:15:09;1.23;;;1.00;;
16308;SDS011;8263;48.880;9.276;2022-08-20T06:17:37;0.88;;;0.88;;
16308;SDS011;8263;48.880;9.276;2022-08-20T06:20:05;1.20;;;1.10;;
16308;SDS011;8263;48.880;9.276;2022-08-20T06:22:32;0.75;;;0.75;;
16308;SDS011;8263;48.880;9.276;2022-08-20T06:25:00;1.20;;;0.93;;
16308;SDS011;8263;48.880;9.276;2022-08-20T06:27:26;0.90;;;0.85;;
16308;SDS011;8263;48.880;9.276;2022-08-20T06:29:53;1.75;;;0.95;;
16308;SDS011;8263;48.880;9.276;2022-08-20T06:32:20;0.80;;;0.80;;
16308;SDS011;8263;48.880;9.276;2022-08-20T06:34:48;0.80;;;0.80;;
16308;SDS011;8263;48.880;9.276;2022-08-20T06:37:16;1.02;;;0.95;;
16308;SDS011;8263;48.880;9.276;2022-08-20T06:39:44;0.70;;;0.70;;
16308;SDS011;8263;48.880;9.276;2022-08-20T06:42:12;1.13;;;1.00;;
16308;SDS011;8263;48.880;9.276;2022-08-20T06:44:39;0.82;;;0.82;;
16308;SDS011;8263;48.880;9.276;2022-08-20T06:47:09;1.00;;;0.88;;
16308;SDS011;8263;48.880;9.276;2022-08-20T06:49:38;1.17;;;0.80;;
16308;SDS011;8263;48.880;9.276;2022-08-20T06:52:04;1.05;;;0.95;;
16308;SDS011;8263;48.880;9.276;2022-08-20T06:54:31;0.85;;;0.82;;
16308;SDS011;8263;48.880;9.276;2022-08-20T06:56:58;1.40;;;1.20;;
16308;SDS011;8263;48.880;9.276;2022-08-20T06:59:26;1.10;;;1.00;;
16308;SDS011;8263;48.880;9.276;2022-08-20T07:01:53;0.80;;;0.80;;
16308;SDS011;8263;48.880;9.276;2022-08-20T07:04:20;1.33;;;1.15;;
16308;SDS011;8263;48.880;9.276;2022-08-20T07:06:47;1.83;;;0.80;;
16308;SDS011;8263;48.880;9.276;2022-08-20T07:09:15;1.33;;;1.20;;
16308;SDS011;8263;48.880;9.276;2022-08-20T07:11:41;1.75;;;1.08;;
16308;SDS011;8263;48.880;9.276;2022-08-20T07:14:08;1.08;;;0.98;;
16308;SDS011;8263;48.880;9.276;2022-08-20T07:16:36;1.40;;;1.00;;
16308;SDS011;8263;48.880;9.276;2022-08-20T07:19:03;1.52;;;1.23;;
16308;SDS011;8263;48.880;9.276;2022-08-20T07:21:29;1.13;;;1.00;;
16308;SDS011;8263;48.880;9.276;2022-08-20T07:23:56;1.35;;;1.13;;
16308;SDS011;8263;48.880;9.276;2022-08-20T07:26:23;1.00;;;0.90;;
16308;SDS011;8263;48.880;9.276;2022-08-20T07:28:49;2.15;;;1.23;;
16308;SDS011;8263;48.880;9.276;2022-08-20T07:31:16;1.42;;;1.15;;
16308;SDS011;8263;48.880;9.276;2022-08-20T07:34:01;1.20;;;1.00;;
16308;SDS011;8263;48.880;9.276;2022-08-20T07:36:28;0.88;;;0.77;;
16308;SDS011;8263;48.880;9.276;2022-08-20T07:38:55;0.80;;;0.75;;
16308;SDS011;8263;48.880;9.276;2022-08-20T07:41:22;1.13;;;1.02;;
16308;SDS011;8263;48.880;9.276;2022-08-20T07:43:48;1.23;;;1.10;;
16308;SDS011;8263;48.880;9.276;2022-08-20T07:46:16;2.60;;;0.88;;
16308;SDS011;8263;48.880;9.276;2022-08-20T07:48:43;1.98;;;1.25;;
16308;SDS011;8263;48.880;9.276;2022-08-20T07:51:12;1.05;;;0.80;;
16308;SDS011;8263;48.880;9.276;2022-08-20T07:53:42;1.10;;;0.98;;
16308;SDS011;8263;48.880;9.276;2022-08-20T07:56:10;2.75;;;1.30;;
16308;SDS011;8263;48.880;9.276;2022-08-20T07:58:38;1.23;;;1.13;;
16308;SDS011;8263;48.880;9.276;2022-08-20T08:01:05;1.13;;;1.02;;
16308;SDS011;8263;48.880;9.276;2022-08-20T08:03:32;1.92;;;0.93;;
16308;SDS011;8263;48.880;9.276;2022-08-20T08:05:59;2.28;;;1.42;;
16308;SDS011;8263;48.880;9.276;2022-08-20T08:08:27;0.70;;;0.68;;
16308;SDS011;8263;48.880;9.276;2022-08-20T08:10:54;0.90;;;0.90;;
16308;SDS011;8263;48.880;9.276;2022-08-20T08:13:23;1.83;;;1.30;;
16308;SDS011;8263;48.880;9.276;2022-08-20T08:15:51;1.00;;;0.88;;
16308;SDS011;8263;48.880;9.276;2022-08-20T08:18:21;0.98;;;0.98;;
16308;SDS011;8263;48.880;9.276;2022-08-20T08:20:49;1.25;;;1.05;;
16308;SDS011;8263;48.880;9.276;2022-08-20T08:23:18;1.95;;;1.00;;
16308;SDS011;8263;48.880;9.276;2022-08-20T08:25:46;1.27;;;0.98;;
16308;SDS011;8263;48.880;9.276;2022-08-20T08:28:13;1.77;;;1.10;;
16308;SDS011;8263;48.880;9.276;2022-08-20T08:30:40;1.15;;;1.05;;
16308;SDS011;8263;48.880;9.276;2022-08-20T08:33:12;2.42;;;1.13;;
16308;SDS011;8263;48.880;9.276;2022-08-20T08:35:57;1.33;;;1.23;;
16308;SDS011;8263;48.880;9.276;2022-08-20T08:38:24;2.30;;;1.30;;
16308;SDS011;8263;48.880;9.276;2022-08-20T08:40:54;0.85;;;0.85;;
16308;SDS011;8263;48.880;9.276;2022-08-20T08:43:22;1.25;;;1.15;;
16308;SDS011;8263;48.880;9.276;2022-08-20T08:45:53;1.20;;;1.10;;
16308;SDS011;8263;48.880;9.276;2022-08-20T08:48:19;1.17;;;1.08;;
16308;SDS011;8263;48.880;9.276;2022-08-20T08:50:47;1.30;;;0.98;;
16308;SDS011;8263;48.880;9.276;2022-08-20T08:53:16;1.55;;;1.20;;
16308;SDS011;8263;48.880;9.276;2022-08-20T08:55:44;1.50;;;1.00;;
16308;SDS011;8263;48.880;9.276;2022-08-20T08:58:12;2.65;;;1.60;;
16308;SDS011;8263;48.880;9.276;2022-08-20T09:00:39;1.30;;;1.10;;
16308;SDS011;8263;48.880;9.276;2022-08-20T09:03:06;1.33;;;1.20;;
16308;SDS011;8263;48.880;9.276;2022-08-20T09:05:47;1.25;;;1.15;;
16308;SDS011;8263;48.880;9.276;2022-08-20T09:08:45;1.95;;;1.20;;
16308;SDS011;8263;48.880;9.276;2022-08-20T09:11:53;1.23;;;1.13;;
16308;SDS011;8263;48.880;9.276;2022-08-20T09:33:33;1.85;;;0.90;;
16308;SDS011;8263;48.880;9.276;2022-08-20T09:36:29;3.75;;;0.90;;
16308;SDS011;8263;48.880;9.276;2022-08-20T09:42:26;1.13;;;0.95;;
16308;SDS011;8263;48.880;9.276;2022-08-20T09:45:23;1.08;;;0.98;;
16308;SDS011;8263;48.880;9.276;2022-08-20T09:48:22;0.95;;;0.88;;
16308;SDS011;8263;48.880;9.276;2022-08-20T10:03:25;0.98;;;0.95;;
16308;SDS011;8263;48.880;9.276;2022-08-20T10:09:20;0.82;;;0.82;;
16308;SDS011;8263;48.880;9.276;2022-08-20T10:11:53;1.75;;;1.05;;
16308;SDS011;8263;48.880;9.276;2022-08-20T10:14:20;1.25;;;1.15;;
16308;SDS011;8263;48.880;9.276;2022-08-20T10:19:32;1.10;;;0.85;;
16308;SDS011;8263;48.880;9.276;2022-08-20T10:21:59;0.80;;;0.80;;
16308;SDS011;8263;48.880;9.276;2022-08-20T10:24:38;1.02;;;0.82;;
16308;SDS011;8263;48.880;9.276;2022-08-20T10:27:13;1.08;;;1.00;;
16308;SDS011;8263;48.880;9.276;2022-08-20T10:29:43;1.23;;;1.02;;
16308;SDS011;8263;48.880;9.276;2022-08-20T10:32:14;0.68;;;0.68;;
16308;SDS011;8263;48.880;9.276;2022-08-20T10:34:43;0.90;;;0.90;;
16308;SDS011;8263;48.880;9.276;2022-08-20T10:40:21;1.30;;;1.13;;
16308;SDS011;8263;48.880;9.276;2022-08-20T10:42:56;1.45;;;1.15;;
16308;SDS011;8263;48.880;9.276;2022-08-20T10:48:46;1.67;;;0.93;;
16308;SDS011;8263;48.880;9.276;2022-08-20T10:51:39;1.10;;;1.00;;
16308;SDS011;8263;48.880;9.276;2022-08-20T10:54:20;0.90;;;0.90;;
16308;SDS011;8263;48.880;9.276;2022-08-20T10:56:59;1.23;;;1.13;;
16308;SDS011;8263;48.880;9.276;2022-08-20T10:59:28;1.33;;;1.15;;
16308;SDS011;8263;48.880;9.276;2022-08-20T11:01:55;1.23;;;1.13;;
16308;SDS011;8263;48.880;9.276;2022-08-20T11:04:24;1.65;;;1.10;;
16308;SDS011;8263;48.880;9.276;2022-08-20T11:07:01;1.20;;;1.10;;
16308;SDS011;8263;48.880;9.276;2022-08-20T11:09:34;1.15;;;1.00;;
16308;SDS011;8263;48.880;9.276;2022-08-20T11:12:03;1.17;;;1.08;;
16308;SDS011;8263;48.880;9.276;2022-08-20T11:14:30;1.10;;;1.00;;
16308;SDS011;8263;48.880;9.276;2022-08-20T11:17:20;1.27;;;1.10;;
16308;SDS011;8263;48.880;9.276;2022-08-20T11:19:56;1.45;;;1.33;;
16308;SDS011;8263;48.880;9.276;2022-08-20T11:22:25;1.15;;;1.08;;
16308;SDS011;8263;48.880;9.276;2022-08-20T11:24:52;1.23;;;1.10;;
16308;SDS011;8263;48.880;9.276;2022-08-20T11:27:21;1.00;;;0.95;;
16308;SDS011;8263;48.880;9.276;2022-08-20T11:29:48;0.68;;;0.68;;
16308;SDS011;8263;48.880;9.276;2022-08-20T11:32:14;1.23;;;1.13;;
16308;SDS011;8263;48.880;9.276;2022-08-20T11:34:41;0.90;;;0.90;;
16308;SDS011;8263;48.880;9.276;2022-08-20T11:37:30;1.40;;;1.15;;
16308;SDS011;8263;48.880;9.276;2022-08-20T11:40:03;1.63;;;1.25;;
16308;SDS011;8263;48.880;9.276;2022-08-20T11:42:30;1.75;;;1.35;;
16308;SDS011;8263;48.880;9.276;2022-08-20T11:44:57;1.17;;;1.08;;
16308;SDS011;8263;48.880;9.276;2022-08-20T11:47:25;1.38;;;1.20;;
16308;SDS011;8263;48.880;9.276;2022-08-20T11:49:56;1.35;;;1.25;;
16308;SDS011;8263;48.880;9.276;2022-08-20T11:52:23;1.02;;;0.93;;
16308;SDS011;8263;48.880;9.276;2022-08-20T11:54:50;0.90;;;0.70;;
16308;SDS011;8263;48.880;9.276;2022-08-20T11:57:20;0.88;;;0.73;;
16308;SDS011;8263;48.880;9.276;2022-08-20T11:59:47;1.17;;;0.88;;
16308;SDS011;8263;48.880;9.276;2022-08-20T12:02:24;1.10;;;0.88;;
16308;SDS011;8263;48.880;9.276;2022-08-20T12:04:54;0.88;;;0.88;;
16308;SDS011;8263;48.880;9.276;2022-08-20T12:07:35;1.10;;;1.00;;
16308;SDS011;8263;48.880;9.276;2022-08-20T12:10:08;2.35;;;1.02;;
16308;SDS011;8263;48.880;9.276;2022-08-20T12:12:37;0.80;;;0.80;;
16308;SDS011;8263;48.880;9.276;2022-08-20T12:15:09;1.70;;;1.00;;
16308;SDS011;8263;48.880;9.276;2022-08-20T12:17:39;0.88;;;0.88;;
16308;SDS011;8263;48.880;9.276;2022-08-20T12:20:10;0.75;;;0.75;;
16308;SDS011;8263;48.880;9.276;2022-08-20T12:22:38;0.77;;;0.77;;
16308;SDS011;8263;48.880;9.276;2022-08-20T12:25:05;0.88;;;0.88;;
16308;SDS011;8263;48.880;9.276;2022-08-20T12:27:37;0.65;;;0.65;;
16308;SDS011;8263;48.880;9.276;2022-08-20T12:30:10;0.80;;;0.80;;
16308;SDS011;8263;48.880;9.276;2022-08-20T12:32:39;0.60;;;0.60;;
16308;SDS011;8263;48.880;9.276;2022-08-20T12:35:13;3.78;;;0.80;;
16308;SDS011;8263;48.880;9.276;2022-08-20T12:37:43;0.60;;;0.60;;
16308;SDS011;8263;48.880;9.276;2022-08-20T12:40:16;0.75;;;0.73;;
16308;SDS011;8263;48.880;9.276;2022-08-20T12:42:48;0.68;;;0.68;;
16308;SDS011;8263;48.880;9.276;2022-08-20T12:45:19;1.35;;;0.90;;
16308;SDS011;8263;48.880;9.276;2022-08-20T12:50:30;0.63;;;0.63;;
16308;SDS011;8263;48.880;9.276;2022-08-20T12:52:59;0.63;;;0.63;;
16308;SDS011;8263;48.880;9.276;2022-08-20T12:55:31;0.93;;;0.70;;
16308;SDS011;8263;48.880;9.276;2022-08-20T12:58:02;0.80;;;0.80;;
16308;SDS011;8263;48.880;9.276;2022-08-20T13:00:29;0.80;;;0.80;;
16308;SDS011;8263;48.880;9.276;2022-08-20T13:03:02;1.92;;;0.68;;
16308;SDS011;8263;48.880;9.276;2022-08-20T13:05:30;0.50;;;0.50;;
16308;SDS011;8263;48.880;9.276;2022-08-20T13:08:07;0.73;;;0.60;;
16308;SDS011;8263;48.880;9.276;2022-08-20T13:10:42;0.40;;;0.40;;
16308;SDS011;8263;48.880;9.276;2022-08-20T13:13:14;0.32;;;0.32;;
16308;SDS011;8263;48.880;9.276;2022-08-20T13:15:48;0.40;;;0.40;;
16308;SDS011;8263;48.880;9.276;2022-08-20T13:18:30;0.60;;;0.55;;
16308;SDS011;8263;48.880;9.276;2022-08-20T13:21:03;0.60;;;0.60;;
16308;SDS011;8263;48.880;9.276;2022-08-20T13:23:45;0.60;;;0.60;;
16308;SDS011;8263;48.880;9.276;2022-08-20T13:26:28;0.40;;;0.40;;
16308;SDS011;8263;48.880;9.276;2022-08-20T13:29:01;0.68;;;0.60;;
16308;SDS011;8263;48.880;9.276;2022-08-20T13:31:31;0.90;;;0.77;;
16308;SDS011;8263;48.880;9.276;2022-08-20T13:34:12;0.50;;;0.50;;
16308;SDS011;8263;48.880;9.276;2022-08-20T13:36:39;0.50;;;0.50;;
16308;SDS011;8263;48.880;9.276;2022-08-20T13:39:07;1.05;;;0.80;;
16308;SDS011;8263;48.880;9.276;2022-08-20T13:41:34;0.70;;;0.70;;
16308;SDS011;8263;48.880;9.276;2022-08-20T13:44:06;1.10;;;1.02;;
16308;SDS011;8263;48.880;9.276;2022-08-20T13:46:33;0.80;;;0.70;;
16308;SDS011;8263;48.880;9.276;2022-08-20T13:49:00;0.47;;;0.47;;
16308;SDS011;8263;48.880;9.276;2022-08-20T13:51:27;0.50;;;0.50;;
16308;SDS011;8263;48.880;9.276;2022-08-20T13:53:54;1.20;;;0.95;;
16308;SDS011;8263;48.880;9.276;2022-08-20T13:56:21;0.50;;;0.50;;
16308;SDS011;8263;48.880;9.276;2022-08-20T13:58:48;1.15;;;0.90;;
16308;SDS011;8263;48.880;9.276;2022-08-20T14:01:16;0.60;;;0.60;;
16308;SDS011;8263;48.880;9.276;2022-08-20T14:03:43;0.85;;;0.70;;
16308;SDS011;8263;48.880;9.276;2022-08-20T14:06:10;0.52;;;0.52;;
16308;SDS011;8263;48.880;9.276;2022-08-20T14:08:43;1.25;;;0.90;;
16308;SDS011;8263;48.880;9.276;2022-08-20T14:11:13;0.65;;;0.60;;
16308;SDS011;8263;48.880;9.276;2022-08-20T14:13:40;0.63;;;0.60;;
16308;SDS011;8263;48.880;9.276;2022-08-20T14:16:10;0.75;;;0.73;;
16308;SDS011;8263;48.880;9.276;2022-08-20T14:18:50;0.40;;;0.40;;
16308;SDS011;8263;48.880;9.276;2022-08-20T14:21:17;0.43;;;0.43;;
16308;SDS011;8263;48.880;9.276;2022-08-20T14:23:57;0.57;;;0.57;;
16308;SDS011;8263;48.880;9.276;2022-08-20T14:26:34;0.60;;;0.60;;
16308;SDS011;8263;48.880;9.276;2022-08-20T14:29:12;0.55;;;0.55;;
16308;SDS011;8263;48.880;9.276;2022-08-20T14:31:56;1.30;;;0.60;;
16308;SDS011;8263;48.880;9.276;2022-08-20T14:34:42;0.40;;;0.40;;
16308;SDS011;8263;48.880;9.276;2022-08-20T14:37:17;0.70;;;0.70;;
16308;SDS011;8263;48.880;9.276;2022-08-20T14:39:45;0.30;;;0.30;;
16308;SDS011;8263;48.880;9.276;2022-08-20T14:42:12;1.70;;;0.63;;
16308;SDS011;8263;48.880;9.276;2022-08-20T14:44:39;0.43;;;0.43;;
16308;SDS011;8263;48.880;9.276;2022-08-20T14:47:10;0.52;;;0.50;;
16308;SDS011;8263;48.880;9.276;2022-08-20T14:49:38;0.40;;;0.40;;
16308;SDS011;8263;48.880;9.276;2022-08-20T14:52:06;0.55;;;0.55;;
16308;SDS011;8263;48.880;9.276;2022-08-20T14:54:33;4.05;;;0.70;;
16308;SDS011;8263;48.880;9.276;2022-08-20T14:56:59;0.40;;;0.40;;
16308;SDS011;8263;48.880;9.276;2022-08-20T14:59:26;0.63;;;0.63;;
16308;SDS011;8263;48.880;9.276;2022-08-20T15:01:53;0.55;;;0.55;;
16308;SDS011;8263;48.880;9.276;2022-08-20T15:04:19;0.68;;;0.68;;
16308;SDS011;8263;48.880;9.276;2022-08-20T15:06:48;0.50;;;0.50;;
16308;SDS011;8263;48.880;9.276;2022-08-20T15:09:16;1.05;;;0.73;;
16308;SDS011;8263;48.880;9.276;2022-08-20T15:11:42;0.50;;;0.50;;
16308;SDS011;8263;48.880;9.276;2022-08-20T15:14:10;0.43;;;0.43;;
16308;SDS011;8263;48.880;9.276;2022-08-20T15:16:36;0.50;;;0.50;;
16308;SDS011;8263;48.880;9.276;2022-08-20T15:19:03;0.50;;;0.50;;
16308;SDS011;8263;48.880;9.276;2022-08-20T15:21:29;0.70;;;0.70;;
16308;SDS011;8263;48.880;9.276;2022-08-20T15:23:56;0.52;;;0.52;;
16308;SDS011;8263;48.880;9.276;2022-08-20T15:26:24;0.98;;;0.65;;
16308;SDS011;8263;48.880;9.276;2022-08-20T15:28:51;0.63;;;0.63;;
16308;SDS011;8263;48.880;9.276;2022-08-20T15:31:17;0.47;;;0.47;;
16308;SDS011;8263;48.880;9.276;2022-08-20T15:33:43;1.58;;;0.90;;
16308;SDS011;8263;48.880;9.276;2022-08-20T15:36:10;0.85;;;0.75;;
16308;SDS011;8263;48.880;9.276;2022-08-20T15:38:36;0.85;;;0.80;;
16308;SDS011;8263;48.880;9.276;2022-08-20T15:41:03;0.60;;;0.60;;
16308;SDS011;8263;48.880;9.276;2022-08-20T15:43:31;0.80;;;0.80;;
16308;SDS011;8263;48.880;9.276;2022-08-20T15:45:59;0.80;;;0.80;;
16308;SDS011;8263;48.880;9.276;2022-08-20T15:48:30;4.45;;;1.70;;
16308;SDS011;8263;48.880;9.276;2022-08-20T15:53:45;0.65;;;0.63;;
16308;SDS011;8263;48.880;9.276;2022-08-20T15:56:27;1.08;;;0.90;;
16308;SDS011;8263;48.880;9.276;2022-08-20T15:59:00;0.65;;;0.65;;
16308;SDS011;8263;48.880;9.276;2022-08-20T16:01:34;0.73;;;0.60;;
16308;SDS011;8263;48.880;9.276;2022-08-20T16:06:50;0.68;;;0.68;;
16308;SDS011;8263;48.880;9.276;2022-08-20T16:09:29;0.70;;;0.70;;
16308;SDS011;8263;48.880;9.276;2022-08-20T16:11:59;0.70;;;0.70;;
16308;SDS011;8263;48.880;9.276;2022-08-20T16:14:29;0.70;;;0.70;;
16308;SDS011;8263;48.880;9.276;2022-08-20T16:17:00;0.65;;;0.65;;
16308;SDS011;8263;48.880;9.276;2022-08-20T16:19:31;0.50;;;0.50;;
16308;SDS011;8263;48.880;9.276;2022-08-20T16:22:00;0.50;;;0.50;;
16308;SDS011;8263;48.880;9.276;2022-08-20T16:24:34;0.70;;;0.68;;
16308;SDS011;8263;48.880;9.276;2022-08-20T16:27:06;0.50;;;0.50;;
16308;SDS011;8263;48.880;9.276;2022-08-20T16:29:52;0.60;;;0.60;;
16308;SDS011;8263;48.880;9.276;2022-08-20T16:32:24;0.60;;;0.60;;
16308;SDS011;8263;48.880;9.276;2022-08-20T16:34:57;0.65;;;0.65;;
16308;SDS011;8263;48.880;9.276;2022-08-20T16:37:26;0.60;;;0.60;;
16308;SDS011;8263;48.880;9.276;2022-08-20T16:39:57;0.75;;;0.75;;
16308;SDS011;8263;48.880;9.276;2022-08-20T16:42:25;2.25;;;1.23;;
16308;SDS011;8263;48.880;9.276;2022-08-20T16:44:58;0.70;;;0.70;;
16308;SDS011;8263;48.880;9.276;2022-08-20T16:47:26;26.35;;;12.10;;
16308;SDS011;8263;48.880;9.276;2022-08-20T16:49:57;10.70;;;5.78;;
16308;SDS011;8263;48.880;9.276;2022-08-20T16:52:24;9.18;;;5.20;;
16308;SDS011;8263;48.880;9.276;2022-08-20T16:54:51;38.10;;;17.02;;
16308;SDS011;8263;48.880;9.276;2022-08-20T16:57:19;13.13;;;5.03;;
16308;SDS011;8263;48.880;9.276;2022-08-20T16:59:53;42.05;;;14.68;;
16308;SDS011;8263;48.880;9.276;2022-08-20T17:02:21;37.58;;;16.90;;
16308;SDS011;8263;48.880;9.276;2022-08-20T17:04:53;5.88;;;4.25;;
16308;SDS011;8263;48.880;9.276;2022-08-20T17:07:23;1.88;;;1.55;;
16308;SDS011;8263;48.880;9.276;2022-08-20T17:09:50;2.40;;;1.73;;
16308;SDS011;8263;48.880;9.276;2022-08-20T17:12:17;2.25;;;1.15;;
16308;SDS011;8263;48.880;9.276;2022-08-20T17:14:46;0.82;;;0.80;;
16308;SDS011;8263;48.880;9.276;2022-08-20T17:17:18;1.30;;;1.20;;
16308;SDS011;8263;48.880;9.276;2022-08-20T17:19:51;0.98;;;0.90;;
16308;SDS011;8263;48.880;9.276;2022-08-20T17:22:18;1.05;;;0.77;;
16308;SDS011;8263;48.880;9.276;2022-08-20T17:24:45;0.90;;;0.90;;
16308;SDS011;8263;48.880;9.276;2022-08-20T17:27:13;0.60;;;0.60;;
16308;SDS011;8263;48.880;9.276;2022-08-20T17:29:50;0.60;;;0.60;;
16308;SDS011;8263;48.880;9.276;2022-08-20T17:32:20;0.82;;;0.80;;
16308;SDS011;8263;48.880;9.276;2022-08-20T17:34:48;0.70;;;0.68;;
16308;SDS011;8263;48.880;9.276;2022-08-20T17:37:21;0.82;;;0.82;;
16308;SDS011;8263;48.880;9.276;2022-08-20T17:39:49;0.70;;;0.70;;
16308;SDS011;8263;48.880;9.276;2022-08-20T17:42:17;0.75;;;0.63;;
16308;SDS011;8263;48.880;9.276;2022-08-20T17:44:45;0.90;;;0.90;;